Time;durP1;ratioP1;P1;durP2;ratioP2;P2;SDS_P1;SDS_P2;PMS_P1;PMS_P2;Temp;Humidity;BMP_temperature;BMP_pressure;BME280_temperature;BME280_humidity;BME280_pressure;Samples;Min_cycle;Max_cycle;Signal;HPM_P1;HPM_P2
2022/04/25 00:01:17;;;;;;;1999.90;999.90;;;13.30;99.90;;;;;;5033732;28;20667;-67
2022/04/25 00:03:43;;;;;;;1999.90;999.90;;;13.30;99.90;;;;;;5033631;28;20412;-66
2022/04/25 00:06:08;;;;;;;1999.90;999.90;;;13.30;99.90;;;;;;5033544;28;20753;-67
2022/04/25 00:08:34;;;;;;;1999.90;999.90;;;13.40;99.90;;;;;;5033590;28;20407;-67
2022/04/25 00:11:00;;;;;;;1999.90;999.90;;;13.50;99.90;;;;;;5033559;28;20200;-67
2022/04/25 00:13:26;;;;;;;1999.90;999.90;;;13.50;99.90;;;;;;5033545;28;20401;-67
2022/04/25 00:15:52;;;;;;;1999.90;999.90;;;13.60;99.90;;;;;;5033210;28;20557;-66
2022/04/25 00:18:18;;;;;;;1999.90;999.90;;;13.40;99.90;;;;;;5033288;28;20952;-66
2022/04/25 00:20:44;;;;;;;1999.90;999.90;;;13.10;99.90;;;;;;5033326;28;20462;-67
2022/04/25 00:23:10;;;;;;;1999.90;999.90;;;13.00;99.90;;;;;;5033355;28;20402;-67
2022/04/25 00:25:36;;;;;;;1999.90;999.90;;;12.90;99.90;;;;;;5032367;28;20410;-67
2022/04/25 00:28:03;;;;;;;1999.90;999.90;;;12.90;99.90;;;;;;5033371;28;20235;-67
2022/04/25 00:30:30;;;;;;;1999.90;999.90;;;12.80;99.90;;;;;;5033093;28;20452;-67
2022/04/25 00:32:57;;;;;;;1999.90;999.90;;;12.60;99.90;;;;;;5033042;28;20446;-67
2022/04/25 00:35:23;;;;;;;1999.90;999.90;;;12.50;99.90;;;;;;5032821;28;20462;-67
2022/04/25 00:37:50;;;;;;;1999.90;999.90;;;12.30;99.90;;;;;;5032946;28;20821;-66
2022/04/25 00:40:19;;;;;;;1999.90;999.90;;;12.20;99.90;;;;;;5032913;28;20422;-67
2022/04/25 00:42:44;;;;;;;1999.90;999.90;;;12.10;99.90;;;;;;5033793;28;20453;-66
2022/04/25 00:45:11;;;;;;;1999.90;999.90;;;12.00;99.90;;;;;;5034583;28;20403;-66
2022/04/25 00:47:38;;;;;;;1999.90;999.90;;;12.00;99.90;;;;;;5034202;28;20165;-66
2022/04/25 00:50:05;;;;;;;1999.90;999.90;;;11.80;99.90;;;;;;5033159;28;20410;-66
2022/04/25 00:52:30;;;;;;;1999.90;999.90;;;11.70;99.90;;;;;;5032667;28;20403;-66
2022/04/25 00:54:58;;;;;;;1999.90;999.90;;;11.70;99.90;;;;;;5032530;28;20419;-66
2022/04/25 00:57:25;;;;;;;1999.90;999.90;;;11.60;99.90;;;;;;5032592;28;20270;-66
2022/04/25 00:59:51;;;;;;;1999.90;999.90;;;11.50;99.90;;;;;;5032588;28;20411;-66
2022/04/25 01:02:16;;;;;;;1999.90;999.90;;;11.40;99.90;;;;;;5032541;28;20407;-66
2022/04/25 01:04:43;;;;;;;1999.90;999.90;;;11.30;99.90;;;;;;5032326;28;20405;-66
2022/04/25 01:07:09;;;;;;;1999.90;999.90;;;11.20;99.90;;;;;;5032464;28;20179;-66
2022/04/25 01:09:35;;;;;;;1999.90;999.90;;;11.00;99.90;;;;;;5032428;28;20407;-66
2022/04/25 01:12:00;;;;;;;1999.90;999.90;;;11.00;99.90;;;;;;5032407;28;20195;-66
2022/04/25 01:14:26;;;;;;;1999.90;999.90;;;11.00;99.90;;;;;;5032108;28;20641;-66
2022/04/25 01:16:51;;;;;;;1999.90;999.90;;;11.00;99.90;;;;;;5032238;28;20198;-66
2022/04/25 01:19:17;;;;;;;1999.90;999.90;;;10.80;99.90;;;;;;5032311;28;20174;-66
2022/04/25 01:22:04;;;;;;;1999.90;999.90;;;10.70;99.90;;;;;;5032110;28;20200;-66
2022/04/25 01:27:17;;;;;;;1999.90;999.90;;;10.70;99.90;;;;;;5032496;28;20421;-66
2022/04/25 01:29:44;;;;;;;1999.90;999.90;;;10.70;99.90;;;;;;5032347;28;20417;-66
2022/04/25 01:32:10;;;;;;;1999.90;999.90;;;10.70;99.90;;;;;;5031985;28;20430;-66
2022/04/25 01:34:37;;;;;;;1999.90;999.90;;;10.70;99.90;;;;;;5031819;28;20406;-66
2022/04/25 01:37:11;;;;;;;1999.90;999.90;;;10.80;99.90;;;;;;5031179;28;20956;-66
2022/04/25 01:39:42;;;;;;;1999.90;999.90;;;10.70;99.90;;;;;;5031900;28;20568;-66
2022/04/25 01:42:09;;;;;;;1999.90;999.90;;;10.70;99.90;;;;;;5032129;28;20475;-66
2022/04/25 01:44:35;;;;;;;1999.90;999.90;;;10.70;99.90;;;;;;5031721;28;20415;-66
2022/04/25 01:47:02;;;;;;;1999.90;999.90;;;10.60;99.90;;;;;;5032028;28;20411;-66
2022/04/25 01:49:28;;;;;;;1999.90;999.90;;;10.70;99.90;;;;;;5031987;28;20415;-66
2022/04/25 01:51:54;;;;;;;1999.90;999.90;;;10.80;99.90;;;;;;5031824;28;20485;-66
2022/04/25 01:54:25;;;;;;;1999.90;999.90;;;10.70;99.90;;;;;;5031595;28;20442;-66
2022/04/25 01:56:51;;;;;;;1999.90;999.90;;;10.80;99.90;;;;;;5031888;28;20937;-66
2022/04/25 01:59:17;;;;;;;1999.90;999.90;;;10.80;99.90;;;;;;5032274;28;20437;-66
2022/04/25 02:01:43;;;;;;;1999.90;999.90;;;10.90;99.90;;;;;;5031793;28;20789;-66
2022/04/25 02:04:09;;;;;;;1999.90;999.90;;;11.00;99.90;;;;;;5031505;28;20176;-66
2022/04/25 02:06:35;;;;;;;1999.90;999.90;;;11.00;99.90;;;;;;5031717;28;20243;-66
2022/04/25 02:09:00;;;;;;;1999.90;999.90;;;11.00;99.90;;;;;;5031735;28;20441;-66
2022/04/25 02:11:26;;;;;;;1999.90;999.90;;;11.00;99.90;;;;;;5031657;28;20191;-66
2022/04/25 02:13:53;;;;;;;1999.90;999.90;;;11.00;99.90;;;;;;5031882;28;20179;-66
2022/04/25 02:16:20;;;;;;;1999.90;999.90;;;10.90;99.90;;;;;;5031489;28;20478;-66
2022/04/25 02:18:46;;;;;;;1999.90;999.90;;;11.00;99.90;;;;;;5031538;28;20523;-66
2022/04/25 02:21:12;;;;;;;1999.90;999.90;;;11.00;99.90;;;;;;5032365;28;20454;-66
2022/04/25 02:23:38;;;;;;;1999.90;999.90;;;11.00;99.90;;;;;;5033404;28;20176;-66
2022/04/25 02:26:05;;;;;;;1999.90;999.90;;;11.00;99.90;;;;;;5032794;28;20176;-66
2022/04/25 02:28:31;;;;;;;1999.90;999.90;;;11.00;99.90;;;;;;5032127;28;20951;-66
2022/04/25 02:30:58;;;;;;;1999.90;999.90;;;11.00;99.90;;;;;;5031643;28;20502;-66
2022/04/25 02:33:24;;;;;;;1999.90;999.90;;;11.00;99.90;;;;;;5031564;28;20445;-66
2022/04/25 02:35:50;;;;;;;1999.90;999.90;;;10.90;99.90;;;;;;5031194;28;20790;-66
2022/04/25 02:38:16;;;;;;;1999.90;999.90;;;11.00;99.90;;;;;;5031672;28;20462;-66
2022/04/25 02:40:41;;;;;;;1999.90;999.90;;;10.70;99.90;;;;;;5031448;28;20191;-66
2022/04/25 02:43:07;;;;;;;1999.90;999.90;;;10.60;99.90;;;;;;5031480;28;20167;-66
2022/04/25 02:45:32;;;;;;;1999.90;999.90;;;10.40;99.90;;;;;;5031149;28;20199;-67
2022/04/25 02:47:58;;;;;;;1999.90;999.90;;;10.20;99.90;;;;;;5031463;28;20667;-67
2022/04/25 02:50:24;;;;;;;1999.90;999.90;;;10.10;99.90;;;;;;5034545;28;20822;-66
2022/04/25 02:52:53;;;;;;;1999.90;999.90;;;10.10;99.90;;;;;;5034995;28;20171;-66
2022/04/25 02:55:19;;;;;;;1999.90;999.90;;;10.10;99.90;;;;;;5034656;28;20656;-67
2022/04/25 02:57:45;;;;;;;1999.90;999.90;;;10.10;99.90;;;;;;5034826;28;20511;-67
2022/04/25 03:00:11;;;;;;;1999.90;999.90;;;10.00;99.90;;;;;;5034899;28;20808;-67
2022/04/25 03:02:37;;;;;;;1999.90;999.90;;;10.10;99.90;;;;;;5034759;28;20179;-68
2022/04/25 03:05:02;;;;;;;1999.90;999.90;;;10.00;99.90;;;;;;5034500;28;20789;-67
2022/04/25 03:07:28;;;;;;;1999.90;999.90;;;10.00;99.90;;;;;;5035531;28;20218;-67
2022/04/25 03:09:54;;;;;;;1999.90;999.90;;;9.90;99.90;;;;;;5036561;28;20210;-67
2022/04/25 03:12:19;;;;;;;1999.90;999.90;;;10.00;99.90;;;;;;5036985;28;20187;-66
2022/04/25 03:14:45;;;;;;;1999.90;999.90;;;10.00;99.90;;;;;;5036274;28;20544;-66
2022/04/25 03:17:12;;;;;;;1999.90;999.90;;;10.00;99.90;;;;;;5037948;28;20198;-66
2022/04/25 03:19:38;;;;;;;1999.90;999.90;;;10.00;99.90;;;;;;5039208;28;20414;-67
2022/04/25 03:22:04;;;;;;;1999.90;999.90;;;10.00;99.90;;;;;;5040753;28;20454;-66
2022/04/25 03:24:30;;;;;;;1999.90;999.90;;;10.10;99.90;;;;;;5039303;28;20418;-67
2022/04/25 03:26:57;;;;;;;1999.90;999.90;;;10.20;99.90;;;;;;5039475;28;20410;-66
2022/04/25 03:29:22;;;;;;;1999.90;999.90;;;10.20;99.90;;;;;;5039327;28;20424;-66
2022/04/25 03:31:48;;;;;;;1999.90;999.90;;;10.30;99.90;;;;;;5039130;28;20429;-66
2022/04/25 03:34:14;;;;;;;1999.90;999.90;;;10.30;99.90;;;;;;5038620;28;20172;-66
2022/04/25 03:36:39;;;;;;;1999.90;999.90;;;10.50;99.90;;;;;;5039420;28;20168;-66
2022/04/25 03:39:05;;;;;;;1999.90;999.90;;;10.50;99.90;;;;;;5039088;28;20226;-67
2022/04/25 03:41:31;;;;;;;1999.90;999.90;;;10.50;99.90;;;;;;5037304;28;20447;-66
2022/04/25 03:43:57;;;;;;;1999.90;999.90;;;10.50;99.90;;;;;;5037075;28;20985;-66
2022/04/25 03:46:23;;;;;;;1999.90;999.90;;;10.60;99.90;;;;;;5036957;28;20171;-66
2022/04/25 03:48:48;;;;;;;1999.90;999.90;;;10.60;99.90;;;;;;5040780;28;20413;-66
2022/04/25 03:51:14;;;;;;;1999.90;999.90;;;10.60;99.90;;;;;;5041090;28;20535;-66
2022/04/25 03:53:40;;;;;;;1999.90;999.90;;;10.50;99.90;;;;;;5040631;28;20236;-66
2022/04/25 03:58:51;;;;;;;1999.90;999.90;;;10.50;99.90;;;;;;5038294;28;20931;-66
2022/04/25 04:01:16;;;;;;;1999.90;999.90;;;10.60;99.90;;;;;;5036342;28;20426;-66
2022/04/25 04:03:42;;;;;;;1999.90;999.90;;;10.50;99.90;;;;;;5037290;28;20225;-66
2022/04/25 04:06:09;;;;;;;1999.90;999.90;;;10.50;99.90;;;;;;5037686;28;20533;-67
2022/04/25 04:08:35;;;;;;;1999.90;999.90;;;10.50;99.90;;;;;;5036360;28;20180;-66
2022/04/25 04:11:03;;;;;;;1999.90;999.90;;;10.40;99.90;;;;;;5034325;28;20452;-66
2022/04/25 04:13:29;;;;;;;1999.90;999.90;;;10.40;99.90;;;;;;5034506;28;20498;-66
2022/04/25 04:15:56;;;;;;;1999.90;999.90;;;10.40;99.90;;;;;;5034063;28;20848;-66
2022/04/25 04:18:23;;;;;;;1999.90;999.90;;;10.40;99.90;;;;;;5034294;28;20619;-66
2022/04/25 04:20:49;;;;;;;1999.90;999.90;;;10.50;99.90;;;;;;5034694;28;20454;-66
2022/04/25 04:23:14;;;;;;;1999.90;999.90;;;10.50;99.90;;;;;;5034359;28;20458;-66
2022/04/25 04:25:40;;;;;;;1999.90;999.90;;;10.50;99.90;;;;;;5033851;28;20414;-66
2022/04/25 04:28:06;;;;;;;1999.90;999.90;;;10.50;99.90;;;;;;5034246;28;20610;-66
2022/04/25 04:30:32;;;;;;;1999.90;999.90;;;10.50;99.90;;;;;;5033915;28;20458;-67
2022/04/25 04:32:58;;;;;;;1999.90;999.90;;;10.50;99.90;;;;;;5016514;28;20196;-66
2022/04/25 04:38:09;;;;;;;1999.90;999.90;;;10.50;99.90;;;;;;5034094;28;20342;-66
2022/04/25 04:40:35;;;;;;;1999.90;999.90;;;10.50;99.90;;;;;;5033854;28;20435;-66
2022/04/25 04:43:02;;;;;;;1999.90;999.90;;;10.50;99.90;;;;;;5033774;28;20226;-66
2022/04/25 04:45:28;;;;;;;1999.90;999.90;;;10.40;99.90;;;;;;5033709;28;20882;-67
2022/04/25 04:47:54;;;;;;;1999.90;999.90;;;10.40;99.90;;;;;;5033856;28;20491;-66
2022/04/25 04:50:20;;;;;;;1999.90;999.90;;;10.40;99.90;;;;;;5033894;28;20244;-66
2022/04/25 04:52:47;;;;;;;1999.90;999.90;;;10.30;99.90;;;;;;5033731;28;20897;-66
2022/04/25 04:55:14;;;;;;;1999.90;999.90;;;10.20;99.90;;;;;;5033479;28;20254;-66
2022/04/25 04:57:40;;;;;;;1999.90;999.90;;;10.10;99.90;;;;;;5033405;28;20450;-66
2022/04/25 05:00:08;;;;;;;1999.90;999.90;;;10.10;99.90;;;;;;5033724;28;20402;-66
2022/04/25 05:02:33;;;;;;;1999.90;999.90;;;10.10;99.90;;;;;;5033646;28;20948;-66
2022/04/25 05:04:59;;;;;;;1999.90;999.90;;;10.00;99.90;;;;;;5033188;28;20457;-66
2022/04/25 05:07:25;;;;;;;1999.90;999.90;;;9.90;99.90;;;;;;5033591;28;20191;-66
2022/04/25 05:09:52;;;;;;;1999.90;999.90;;;10.00;99.90;;;;;;5033467;28;20415;-66
2022/04/25 05:12:18;;;;;;;1999.90;999.90;;;9.80;99.90;;;;;;5033048;28;20553;-66
2022/04/25 05:14:44;;;;;;;1999.90;999.90;;;9.90;99.90;;;;;;5032954;28;20468;-66
2022/04/25 05:17:09;;;;;;;1999.90;999.90;;;9.90;99.90;;;;;;5033425;28;20450;-66
2022/04/25 05:19:35;;;;;;;1999.90;999.90;;;9.90;99.90;;;;;;5033427;28;20183;-66
2022/04/25 05:22:01;;;;;;;1999.90;999.90;;;9.90;99.90;;;;;;5032954;28;20301;-66
2022/04/25 05:24:26;;;;;;;1999.90;999.90;;;9.80;99.90;;;;;;5033063;28;20206;-66
2022/04/25 05:26:52;;;;;;;1999.90;999.90;;;9.80;99.90;;;;;;5033060;28;20175;-67
2022/04/25 05:29:17;;;;;;;1999.90;999.90;;;9.80;99.90;;;;;;5033694;28;20178;-66
2022/04/25 05:31:43;;;;;;;1999.90;999.90;;;9.90;99.90;;;;;;5015478;28;20672;-66
2022/04/25 05:34:14;;;;;;;1999.90;999.90;;;9.90;99.90;;;;;;5032837;28;20247;-66
2022/04/25 05:36:40;;;;;;;1999.90;999.90;;;10.00;99.90;;;;;;5033319;28;20165;-66
2022/04/25 05:39:06;;;;;;;1999.90;999.90;;;10.10;99.90;;;;;;5033278;28;20413;-66
2022/04/25 05:41:31;;;;;;;1999.90;999.90;;;10.00;99.90;;;;;;5033260;28;20950;-66
2022/04/25 05:43:57;;;;;;;1999.90;999.90;;;9.90;99.90;;;;;;5033206;28;20183;-66
2022/04/25 05:46:23;;;;;;;1999.90;999.90;;;9.90;99.90;;;;;;5032774;28;20174;-66
2022/04/25 05:54:18;;;;;;;1999.90;999.90;;;10.40;99.90;;;;;;5032613;28;20409;-66
2022/04/25 05:56:44;;;;;;;1999.90;999.90;;;10.50;99.90;;;;;;5032502;28;20407;-67
2022/04/25 05:59:10;;;;;;;1999.90;999.90;;;10.60;99.90;;;;;;5032604;28;20245;-66
2022/04/25 06:01:35;;;;;;;1999.90;999.90;;;10.90;99.90;;;;;;5032402;28;20419;-66
2022/04/25 06:04:01;;;;;;;1999.90;999.90;;;10.80;99.90;;;;;;5032108;28;20591;-66
2022/04/25 06:06:26;;;;;;;1999.90;999.90;;;10.90;99.90;;;;;;5032649;28;20584;-66
2022/04/25 06:08:52;;;;;;;1999.90;999.90;;;10.90;99.90;;;;;;5032360;28;20179;-66
2022/04/25 06:11:18;;;;;;;1999.90;999.90;;;10.90;99.90;;;;;;5032394;28;20203;-66
2022/04/25 06:13:44;;;;;;;1999.90;999.90;;;10.90;99.90;;;;;;5032197;28;20173;-67
2022/04/25 06:16:13;;;;;;;1999.90;999.90;;;11.00;99.90;;;;;;5032281;28;20653;-66
2022/04/25 06:18:39;;;;;;;1999.90;999.90;;;11.00;99.90;;;;;;5032190;28;20944;-66
2022/04/25 06:21:04;;;;;;;1999.90;999.90;;;11.10;99.90;;;;;;5032008;28;20444;-66
2022/04/25 06:23:31;;;;;;;1999.90;999.90;;;11.10;99.90;;;;;;5032731;28;20208;-66
2022/04/25 06:25:57;;;;;;;1999.90;999.90;;;11.00;99.90;;;;;;5035852;28;20542;-66
2022/04/25 06:28:24;;;;;;;1999.90;999.90;;;11.00;99.90;;;;;;5036223;28;20409;-66
2022/04/25 06:30:54;;;;;;;1999.90;999.90;;;11.00;99.90;;;;;;5035954;28;20932;-67
2022/04/25 06:33:20;;;;;;;1999.90;999.90;;;11.10;99.90;;;;;;5035968;28;20437;-66
2022/04/25 06:35:45;;;;;;;1999.90;999.90;;;11.10;99.90;;;;;;5035604;28;20490;-66
2022/04/25 06:38:11;;;;;;;1999.90;999.90;;;11.10;99.90;;;;;;5035914;28;20548;-67
2022/04/25 06:40:40;;;;;;;1999.90;999.90;;;11.20;99.90;;;;;;5035994;28;20271;-66
2022/04/25 06:43:07;;;;;;;1999.90;999.90;;;11.20;99.90;;;;;;5035854;28;20172;-66
2022/04/25 06:45:33;;;;;;;1999.90;999.90;;;11.30;99.90;;;;;;5035635;28;20431;-66
2022/04/25 06:47:59;;;;;;;1999.90;999.90;;;11.30;99.90;;;;;;5035669;28;20407;-66
2022/04/25 06:50:25;;;;;;;1999.90;999.90;;;11.40;99.90;;;;;;5035727;28;20196;-66
2022/04/25 06:52:50;;;;;;;1999.90;999.90;;;11.50;99.90;;;;;;5035759;28;20665;-66
2022/04/25 06:55:16;;;;;;;1999.90;999.90;;;11.70;99.90;;;;;;5035257;28;20181;-66
2022/04/25 06:57:42;;;;;;;1999.90;999.90;;;11.80;99.90;;;;;;5035658;28;20206;-66
2022/04/25 07:00:09;;;;;;;1999.90;999.90;;;11.90;99.90;;;;;;5035262;28;20169;-67
2022/04/25 07:02:36;;;;;;;1999.90;999.90;;;12.00;99.90;;;;;;5035327;28;20399;-66
2022/04/25 07:05:04;;;;;;;1999.90;999.90;;;12.10;99.90;;;;;;5035262;28;20408;-66
2022/04/25 07:07:31;;;;;;;1999.90;999.90;;;12.20;99.90;;;;;;5035542;28;20415;-67
2022/04/25 07:09:56;;;;;;;1999.90;999.90;;;12.30;99.90;;;;;;5035303;28;20419;-66
2022/04/25 07:12:22;;;;;;;1999.90;999.90;;;12.40;99.90;;;;;;5035546;28;20416;-66
2022/04/25 07:14:49;;;;;;;1999.90;999.90;;;12.50;99.90;;;;;;5035102;28;20653;-66
2022/04/25 07:17:15;;;;;;;1999.90;999.90;;;12.70;99.90;;;;;;5035130;28;20201;-66
2022/04/25 07:19:41;;;;;;;1999.90;999.90;;;12.90;99.90;;;;;;5035115;28;20399;-66
2022/04/25 07:30:23;;;;;;;1999.90;999.90;;;13.10;99.90;;;;;;5034703;28;20428;-67
2022/04/25 07:32:48;;;;;;;1999.90;999.90;;;13.10;99.90;;;;;;5034717;28;20411;-66
2022/04/25 07:35:14;;;;;;;1999.90;999.90;;;13.20;99.90;;;;;;5034601;28;20275;-66
2022/04/25 07:37:40;;;;;;;1999.90;999.90;;;12.80;99.90;;;;;;5034630;28;20661;-66
2022/04/25 07:40:08;;;;;;;1999.90;999.90;;;12.60;99.90;;;;;;5034523;28;20410;-66
2022/04/25 07:42:35;;;;;;;1999.90;999.90;;;12.50;99.90;;;;;;5035027;28;20193;-66
2022/04/25 07:45:04;;;;;;;1999.90;999.90;;;12.50;99.90;;;;;;5034298;28;20612;-66
2022/04/25 07:47:31;;;;;;;1999.90;999.90;;;12.60;99.90;;;;;;5034538;28;20414;-66
2022/04/25 07:49:57;;;;;;;1999.90;999.90;;;12.80;99.90;;;;;;5034360;28;20413;-67
2022/04/25 07:52:22;;;;;;;1999.90;999.90;;;12.90;99.90;;;;;;5034606;28;20417;-66
2022/04/25 07:54:48;;;;;;;1999.90;999.90;;;13.00;99.90;;;;;;5034226;28;20230;-66
2022/04/25 07:57:15;;;;;;;1999.90;999.90;;;13.00;99.90;;;;;;5034594;28;20572;-66
2022/04/25 07:59:40;;;;;;;1999.90;999.90;;;12.90;99.90;;;;;;5034015;28;20167;-67
2022/04/25 08:02:06;;;;;;;1999.90;999.90;;;12.90;99.90;;;;;;5034329;28;20500;-66
2022/04/25 08:04:32;;;;;;;1999.90;999.90;;;13.00;99.90;;;;;;5034150;28;20220;-66
2022/04/25 08:06:58;;;;;;;1999.90;999.90;;;13.00;99.90;;;;;;5034317;28;20404;-66
2022/04/25 08:09:23;;;;;;;1999.90;999.90;;;13.00;99.90;;;;;;5034460;28;20169;-66
2022/04/25 08:11:49;;;;;;;1999.90;999.90;;;13.00;99.90;;;;;;5033858;28;20185;-66
2022/04/25 08:19:42;;;;;;;1999.90;999.90;;;12.70;99.90;;;;;;5033740;28;20861;-66
2022/04/25 08:22:09;;;;;;;1999.90;999.90;;;12.70;99.90;;;;;;5092909;22;20524;-72
2022/04/25 08:24:36;;;;;;;1999.90;999.90;;;12.80;99.90;;;;;;5055735;28;20173;-72
2022/04/25 08:27:03;;;;;;;1999.90;999.90;;;12.60;99.90;;;;;;5055646;28;20875;-72
2022/04/25 08:29:29;;;;;;;1999.90;999.90;;;12.80;99.90;;;;;;5056138;28;20417;-72
2022/04/25 08:31:55;;;;;;;1999.90;999.90;;;13.10;99.90;;;;;;5055936;28;20501;-72
2022/04/25 08:34:21;;;;;;;1999.90;999.90;;;13.10;99.90;;;;;;5055549;28;20171;-73
2022/04/25 08:36:47;;;;;;;1999.90;999.90;;;13.30;99.90;;;;;;5055782;28;20164;-73
2022/04/25 08:39:12;;;;;;;1999.90;999.90;;;13.40;99.90;;;;;;5037955;28;20433;-73
2022/04/25 08:41:46;;;;;;;1999.90;999.90;;;13.60;99.90;;;;;;5055558;28;20200;-73
2022/04/25 08:44:16;;;;;;;1999.90;999.90;;;13.80;99.90;;;;;;5055734;28;20206;-73
2022/04/25 08:46:45;;;;;;;1999.90;999.90;;;13.90;99.90;;;;;;5055060;28;20420;-73
2022/04/25 08:49:13;;;;;;;1999.90;999.90;;;13.70;99.90;;;;;;5056244;28;20806;-73
2022/04/25 08:51:40;;;;;;;1999.90;999.90;;;13.70;99.90;;;;;;5055636;28;20511;-73
2022/04/25 08:54:08;;;;;;;1999.90;999.90;;;13.70;99.90;;;;;;5055633;28;20459;-72
2022/04/25 08:56:36;;;;;;;1999.90;999.90;;;14.00;99.90;;;;;;5055097;28;20412;-72
2022/04/25 08:59:04;;;;;;;1999.90;999.90;;;14.20;99.90;;;;;;5055264;28;20452;-72
2022/04/25 09:01:30;;;;;;;1999.90;999.90;;;14.30;99.90;;;;;;5055954;28;21205;-72
2022/04/25 09:03:56;;;;;;;1999.90;999.90;;;14.40;99.90;;;;;;5055208;28;20448;-72
2022/04/25 09:06:21;;;;;;;1999.90;999.90;;;14.50;99.90;;;;;;5054964;28;20224;-72
2022/04/25 09:08:47;;;;;;;1999.90;999.90;;;14.60;99.90;;;;;;5055094;28;20175;-72
2022/04/25 09:13:58;;;;;;;1999.90;999.90;;;15.00;99.90;;;;;;5052863;28;20416;-74
2022/04/25 09:16:23;;;;;;;1999.90;999.90;;;15.20;99.90;;;;;;5052059;28;20406;-74
2022/04/25 09:18:49;;;;;;;1999.90;999.90;;;15.50;99.90;;;;;;5052212;28;20507;-74
2022/04/25 09:21:15;;;;;;;1999.90;999.90;;;15.50;99.90;;;;;;5033589;28;20239;-74
2022/04/25 09:23:41;;;;;;;1999.90;999.90;;;15.80;99.90;;;;;;5052131;28;20182;-74
2022/04/25 09:26:21;;;;;;;1999.90;999.90;;;16.10;99.90;;;;;;5051834;28;20573;-74
2022/04/25 09:28:52;;;;;;;1999.90;999.90;;;16.50;99.90;;;;;;5050647;28;20492;-70
2022/04/25 09:31:19;;;;;;;1999.90;999.90;;;16.70;99.90;;;;;;5030861;28;20393;-73
2022/04/25 09:33:46;;;;;;;1999.90;999.90;;;16.60;99.90;;;;;;5030702;28;20444;-73
2022/04/25 09:36:11;;;;;;;1999.90;999.90;;;16.70;99.90;;;;;;5030925;28;20431;-73
2022/04/25 09:38:40;;;;;;;1999.90;999.90;;;16.60;99.90;;;;;;5031197;28;20478;-73
2022/04/25 09:41:08;;;;;;;1999.90;999.90;;;16.30;99.90;;;;;;5030508;28;20421;-73
2022/04/25 09:43:35;;;;;;;1999.90;999.90;;;16.10;99.90;;;;;;5011282;28;20421;-72
2022/04/25 09:46:04;;;;;;;1999.90;999.90;;;16.50;99.90;;;;;;5029882;28;20425;-72
2022/04/25 09:48:30;;;;;;;1999.90;999.90;;;16.90;99.90;;;;;;5031096;28;20786;-72
2022/04/25 09:51:23;;;;;;;1999.90;999.90;;;17.20;99.90;;;;;;5031226;28;20530;-72
2022/04/25 09:53:52;;;;;;;1999.90;999.90;;;17.40;99.90;;;;;;5045523;28;20436;-76
2022/04/25 09:56:31;;;;;;;1999.90;999.90;;;17.30;99.90;;;;;;5049506;28;20414;-74
2022/04/25 09:59:09;;;;;;;1999.90;999.90;;;17.40;99.90;;;;;;5052111;28;20993;-71
2022/04/25 10:01:40;;;;;;;1999.90;999.90;;;17.60;99.90;;;;;;5054336;28;20425;-70
2022/04/25 10:04:26;;;;;;;1999.90;999.90;;;17.90;99.90;;;;;;5054272;28;20376;-71
2022/04/25 10:06:53;;;;;;;1999.90;999.90;;;18.10;99.90;;;;;;5052796;28;20408;-72
2022/04/25 10:09:20;;;;;;;1999.90;999.90;;;18.20;99.90;;;;;;5047218;28;20394;-72
2022/04/25 10:11:48;;;;;;;1999.90;999.90;;;18.20;99.90;;;;;;5055165;28;20519;-72
2022/04/25 10:14:16;;;;;;;1999.90;999.90;;;18.30;99.90;;;;;;5054480;28;20427;-72
2022/04/25 10:16:42;;;;;;;1999.90;999.90;;;18.20;99.90;;;;;;5055628;28;20859;-72
2022/04/25 10:19:08;;;;;;;1999.90;999.90;;;18.00;99.90;;;;;;5055205;28;20454;-72
2022/04/25 10:21:36;;;;;;;1999.90;999.90;;;18.20;99.90;;;;;;5054695;28;20993;-72
2022/04/25 10:24:02;;;;;;;1999.90;999.90;;;18.20;99.90;;;;;;5053862;28;20413;-73
2022/04/25 10:26:30;;;;;;;1999.90;999.90;;;18.00;99.90;;;;;;5054249;28;20857;-73
2022/04/25 10:28:59;;;;;;;1999.90;999.90;;;18.00;99.90;;;;;;5054537;28;20786;-73
2022/04/25 10:31:28;;;;;;;1999.90;999.90;;;18.20;99.90;;;;;;5053748;28;20502;-72
2022/04/25 10:33:54;;;;;;;1999.90;999.90;;;18.20;99.90;;;;;;5054770;28;20493;-73
2022/04/25 10:36:38;;;;;;;1999.90;999.90;;;18.40;99.90;;;;;;5054543;28;20508;-72
2022/04/25 10:39:27;;;;;;;1999.90;999.90;;;18.50;99.90;;;;;;5053396;28;20460;-72
2022/04/25 10:44:37;;;;;;;1999.90;999.90;;;19.40;99.90;;;;;;5053486;28;20394;-72
2022/04/25 10:47:06;;;;;;;1999.90;999.90;;;19.90;99.90;;;;;;5054255;28;20398;-72
2022/04/25 10:49:37;;;;;;;1999.90;999.90;;;20.00;99.90;;;;;;5054068;28;20250;-72
2022/04/25 10:52:04;;;;;;;1999.90;999.90;;;19.70;99.90;;;;;;5054043;28;20417;-72
2022/04/25 10:54:51;;;;;;;1999.90;999.90;;;19.30;99.90;;;;;;5053697;28;20436;-72
2022/04/25 10:57:17;;;;;;;1999.90;999.90;;;18.90;99.90;;;;;;5054708;28;20537;-72
2022/04/25 10:59:43;;;;;;;1999.90;999.90;;;18.80;99.90;;;;;;5054032;28;20416;-72
2022/04/25 11:02:23;;;;;;;1999.90;999.90;;;18.80;99.90;;;;;;5045597;28;20471;-72
2022/04/25 11:05:11;;;;;;;1999.90;999.90;;;18.70;99.90;;;;;;5053464;28;20172;-72
2022/04/25 11:07:40;;;;;;;1999.90;999.90;;;18.80;99.90;;;;;;5053380;28;20419;-72
2022/04/25 11:10:07;;;;;;;1999.90;999.90;;;18.70;99.90;;;;;;5053184;28;20990;-72
2022/04/25 11:12:58;;;;;;;1999.90;999.90;;;18.50;99.90;;;;;;5036019;28;20454;-72
2022/04/25 11:15:47;;;;;;;1999.90;999.90;;;18.40;99.90;;;;;;5033107;28;20739;-72
2022/04/25 11:18:33;;;;;;;1999.90;999.90;;;18.00;99.90;;;;;;5034231;28;20435;-72
2022/04/25 11:21:16;;;;;;;1999.90;999.90;;;17.80;99.90;;;;;;5033725;28;20516;-72
2022/04/25 11:23:44;;;;;;;1999.90;999.90;;;17.30;99.90;;;;;;5033895;28;20396;-73
2022/04/25 11:26:11;;;;;;;1999.90;999.90;;;16.90;99.90;;;;;;5032947;28;20932;-73
2022/04/25 11:28:58;;;;;;;1999.90;999.90;;;16.90;99.90;;;;;;5033403;28;20418;-71
2022/04/25 11:31:28;;;;;;;1999.90;999.90;;;16.70;99.90;;;;;;5033481;28;20426;-72
2022/04/25 11:34:02;;;;;;;1999.90;999.90;;;16.60;99.90;;;;;;5033937;28;20992;-72
2022/04/25 11:36:29;;;;;;;1999.90;999.90;;;16.50;99.90;;;;;;5033425;28;20391;-72
2022/04/25 11:41:41;;;;;;;1999.90;999.90;;;16.70;99.90;;;;;;5033786;28;20465;-71
2022/04/25 11:44:07;;;;;;;1999.90;999.90;;;16.30;99.90;;;;;;5032574;28;20414;-72
2022/04/25 11:46:35;;;;;;;1999.90;999.90;;;16.40;99.90;;;;;;5033147;28;20782;-73
2022/04/25 11:49:01;;;;;;;1999.90;999.90;;;16.50;99.90;;;;;;5033343;28;20423;-72
2022/04/25 11:51:35;;;;;;;1999.90;999.90;;;16.40;99.90;;;;;;5032813;28;20461;-72
2022/04/25 11:54:10;;;;;;;1999.90;999.90;;;16.20;99.90;;;;;;5032971;28;20776;-72
2022/04/25 11:56:41;;;;;;;1999.90;999.90;;;15.90;99.90;;;;;;5033773;28;20911;-72
2022/04/25 11:59:12;;;;;;;1999.90;999.90;;;15.80;99.90;;;;;;5033010;28;20457;-72
2022/04/25 12:01:47;;;;;;;1999.90;999.90;;;15.90;99.90;;;;;;5033160;28;20426;-72
2022/04/25 12:04:17;;;;;;;1999.90;999.90;;;15.80;99.90;;;;;;5032619;28;20743;-72
2022/04/25 12:06:54;;;;;;;1999.90;999.90;;;15.90;99.90;;;;;;5032273;28;20394;-72
2022/04/25 12:15:34;;;;;;;1999.90;999.90;;;16.20;99.90;;;;;;5032017;28;20792;-73
2022/04/25 12:18:18;;;;;;;1999.90;999.90;;;16.00;99.90;;;;;;5033007;28;20465;-72
2022/04/25 12:21:02;;;;;;;1999.90;999.90;;;15.90;99.90;;;;;;5047649;28;20445;-72
2022/04/25 12:23:31;;;;;;;1999.90;999.90;;;16.00;99.90;;;;;;5050918;28;20406;-73
2022/04/25 12:26:02;;;;;;;1999.90;999.90;;;16.00;99.90;;;;;;5051818;28;20407;-72
2022/04/25 12:28:30;;;;;;;1999.90;999.90;;;15.90;99.90;;;;;;5052432;28;20733;-72
2022/04/25 12:30:57;;;;;;;1999.90;999.90;;;16.00;99.90;;;;;;5052661;28;20423;-71
2022/04/25 12:33:37;;;;;;;1999.90;999.90;;;16.30;99.90;;;;;;5048785;28;20415;-72
2022/04/25 12:36:27;;;;;;;1999.90;999.90;;;16.50;99.90;;;;;;5051521;28;20383;-72
2022/04/25 12:39:09;;;;;;;1999.90;999.90;;;16.60;99.90;;;;;;5042390;28;20465;-73
2022/04/25 12:41:38;;;;;;;1999.90;999.90;;;16.70;99.90;;;;;;5052739;28;20424;-74
2022/04/25 12:44:10;;;;;;;1999.90;999.90;;;16.70;99.90;;;;;;5051423;28;20409;-73